Domov               UVHVVR             MKGP            O straneh              
ZDRAVSTVENO VARSTVO RASTLIN
  MREŽA AGROMET. POSTAJ
 ► PROGNOSTIČNA OBVESTILA
AGROMETEOROLOŠKI PODATKI -
ARSO
OBVLADOVANJE TVEGANJ ZARADI
NEUGODNIH VREMENSKIH RAZMER
  ► NARAVNE NESREČE
  ► SUŠA/MOČA
  ► NAMAKANJE
  ► ŽLED (gozdarstvo)
KARTOGRAFSKI PRIKAZI
SPLETNE POVEZAVE
PROJEKTI IN PUBLIKACIJE

AGROMETEOROLOŠKA MREŽA: VREMENSKE POSTAJE IN FENOLOŠKA OPAZOVANJA

Pregled podatkov za lokacijo Češnjevek (Cerklje), meteorološka postaja 855696

Pregled senzorjev na lokaciji

ID Ime Zadnja
vrednost
Datum in čas
zadnje
spremembe
(Lokalni čas)
Tip
senzorja
6417 Sončno sevanje (W/m2) 0 W/m2 28.11.2021 23:30 Pyranometer SP-Lite
3951 Omočenost lista (1,5 m) (U) 4 U 28.11.2021 23:30 A730WET
5071 Padavine (mm) 0 mm 28.11.2021 23:30 Generic 0.2 mm
6412 Relativna zračna vlaga (2 m) (%RH) 100 %RH 28.11.2021 23:30 50YA
6418 Temperatura tal (30 cm) (°C) 4.8 °C 28.11.2021 23:30 ST2
6411 Temperatura (2 m) (°C) 0.1 °C 28.11.2021 23:30 50YA

Pregled podatkov zadnjih 24 ur

Zap.
št.
Datum in čas
(Centralno
evropski čas)
Češnjevek (Cerklje)
Sončno
sevanje
Omočenost
lista
(1,5
m)
Padavine Relativna
zračna
vlaga
(2
m)
Temperatura
tal
(30
cm)
Temperatura
(2
m)
1 28.11.2021 23:30 0.3 4 0 100 4.8 0.1
2 28.11.2021 23:00 0.4 5 0 99.9 4.8 0.1
3 28.11.2021 22:30 0.4 8 0 99.5 4.8 0.1
4 28.11.2021 22:00 0.3 6 1.6 98.1 4.8 1
5 28.11.2021 21:30 0.3 8 0.6 97 5 2.6
6 28.11.2021 21:00 0.3 9 0.4 95.4 4.8 3
7 28.11.2021 20:30 0.4 10 0.6 98.5 4.7 2.7
8 28.11.2021 20:00 0.6 9 0.4 98.3 4.8 3
9 28.11.2021 19:30 0.3 6 0 98.3 4.9 3.1
10 28.11.2021 19:00 0.5 4 0 98.3 4.8 3.1
11 28.11.2021 18:30 0.6 5 0 99.1 4.7 2.9
12 28.11.2021 18:00 0.3 5 0 98.5 4.8 3
13 28.11.2021 17:30 0.4 4 0 98.3 4.7 3.1
14 28.11.2021 17:00 0.5 2 0 97.8 4.8 3.2
15 28.11.2021 16:30 6.2 2 0 97.3 4.8 3.2
16 28.11.2021 16:00 40.1 1 0 96.8 4.8 3.6
17 28.11.2021 15:30 38.5 1 0 97.8 4.7 3.6
18 28.11.2021 15:00 56.1 1 0 97.2 4.5 3.7
19 28.11.2021 14:30 52.8 1 0 97.4 4.6 3.6
20 28.11.2021 14:00 71.4 0 0 97.6 4.5 3.4
21 28.11.2021 13:30 68.8 3 0 98.7 4.4 3.1
22 28.11.2021 13:00 78.5 9 0 98.8 4.4 3
23 28.11.2021 12:30 55.2 9 0 98.7 4.4 3
24 28.11.2021 12:00 45.7 2 0 98.8 4.3 2.9
25 28.11.2021 11:30 82.8 0 0 99.2 4.5 2.7
26 28.11.2021 11:00 66.1 1 0 99.3 4.3 2.6
27 28.11.2021 10:30 48.3 2 0 99.6 4.3 2.3
28 28.11.2021 10:00 29.5 2 0 99.7 4.4 2.3
29 28.11.2021 09:30 15.6 2 0 99.6 4.3 2.2
30 28.11.2021 09:00 6.3 2 0.8 99.6 4.3 2.1
31 28.11.2021 08:30 2.6 2 2.4 99.3 4.4 2
32 28.11.2021 08:00 1.1 3 3 97.6 4.4 2.3
33 28.11.2021 07:30 0.5 3 0.4 91.3 4.4 3.8
34 28.11.2021 07:00 0.4 1 0 91.1 4.2 3.7
35 28.11.2021 06:30 0.4 0 0 85.7 4.2 4.6
36 28.11.2021 06:00 0.5 1 0 94.8 4.3 3.2
37 28.11.2021 05:30 0.4 2 3.4 100 4.3 2.5
38 28.11.2021 05:00 0.4 2 3 100 4.3 2.2
39 28.11.2021 04:30 0.2 2 2.6 100 4.4 2
40 28.11.2021 04:00 0.3 3 2.2 100 4.5 2
41 28.11.2021 03:30 0.3 6 1.8 100 4.4 2
42 28.11.2021 03:00 0.4 8 0.2 100 4.5 1.7
43 28.11.2021 02:30 0.3 7 0.2 100 4.5 1.6
44 28.11.2021 02:00 0.5 7 0 100 4.4 1.6
45 28.11.2021 01:30 0.3 5 0 100 4.6 1.6
46 28.11.2021 01:00 0.5 7 0 100 4.5 1.7
47 28.11.2021 00:30 0.4 9 0.8 100 4.5 1.6
48 28.11.2021 00:00 0.3 9 1 100 4.5 1.5
© 2011 Ministrstvo za kmetijstvo, gozdarstvo in prehrano. Vse pravice pridržane.